sensor_id;sensor_type;location;lat;lon;timestamp;P1;durP1;ratioP1;P2;durP2;ratioP2
15474;SDS011;7839;50.462;9.678;2023-05-07T00:00:18;0.50;;;0.50;;
15474;SDS011;7839;50.462;9.678;2023-05-07T00:06:58;0.85;;;0.57;;
15474;SDS011;7839;50.462;9.678;2023-05-07T00:13:39;0.68;;;0.68;;
15474;SDS011;7839;50.462;9.678;2023-05-07T00:20:19;0.75;;;0.75;;
15474;SDS011;7839;50.462;9.678;2023-05-07T00:26:59;0.75;;;0.75;;
15474;SDS011;7839;50.462;9.678;2023-05-07T00:33:40;0.52;;;0.50;;
15474;SDS011;7839;50.462;9.678;2023-05-07T00:40:20;0.63;;;0.63;;
15474;SDS011;7839;50.462;9.678;2023-05-07T00:47:01;0.95;;;0.60;;
15474;SDS011;7839;50.462;9.678;2023-05-07T00:53:42;0.57;;;0.57;;
15474;SDS011;7839;50.462;9.678;2023-05-07T01:00:23;0.50;;;0.50;;
15474;SDS011;7839;50.462;9.678;2023-05-07T01:07:04;0.82;;;0.50;;
15474;SDS011;7839;50.462;9.678;2023-05-07T01:13:45;0.65;;;0.55;;
15474;SDS011;7839;50.462;9.678;2023-05-07T01:20:25;0.50;;;0.50;;
15474;SDS011;7839;50.462;9.678;2023-05-07T01:27:06;2.20;;;1.35;;
15474;SDS011;7839;50.462;9.678;2023-05-07T01:33:46;0.68;;;0.68;;
15474;SDS011;7839;50.462;9.678;2023-05-07T01:40:28;1.48;;;1.38;;
15474;SDS011;7839;50.462;9.678;2023-05-07T01:47:08;0.47;;;0.47;;
15474;SDS011;7839;50.462;9.678;2023-05-07T01:53:48;0.70;;;0.70;;
15474;SDS011;7839;50.462;9.678;2023-05-07T02:00:31;0.70;;;0.70;;
15474;SDS011;7839;50.462;9.678;2023-05-07T02:07:14;1.15;;;0.40;;
15474;SDS011;7839;50.462;9.678;2023-05-07T02:13:54;0.50;;;0.50;;
15474;SDS011;7839;50.462;9.678;2023-05-07T02:20:35;0.40;;;0.40;;
15474;SDS011;7839;50.462;9.678;2023-05-07T02:27:15;0.60;;;0.50;;
15474;SDS011;7839;50.462;9.678;2023-05-07T02:33:55;0.57;;;0.50;;
15474;SDS011;7839;50.462;9.678;2023-05-07T02:40:36;1.77;;;1.15;;
15474;SDS011;7839;50.462;9.678;2023-05-07T02:47:18;0.70;;;0.70;;
15474;SDS011;7839;50.462;9.678;2023-05-07T02:53:58;0.57;;;0.57;;
15474;SDS011;7839;50.462;9.678;2023-05-07T03:00:40;0.50;;;0.50;;
15474;SDS011;7839;50.462;9.678;2023-05-07T03:07:22;0.40;;;0.40;;
15474;SDS011;7839;50.462;9.678;2023-05-07T03:14:02;0.40;;;0.40;;
15474;SDS011;7839;50.462;9.678;2023-05-07T03:20:42;0.60;;;0.60;;
15474;SDS011;7839;50.462;9.678;2023-05-07T03:27:22;3.65;;;3.40;;
15474;SDS011;7839;50.462;9.678;2023-05-07T03:34:02;0.88;;;0.88;;
15474;SDS011;7839;50.462;9.678;2023-05-07T03:40:43;3.93;;;3.53;;
15474;SDS011;7839;50.462;9.678;2023-05-07T03:47:24;3.10;;;2.20;;
15474;SDS011;7839;50.462;9.678;2023-05-07T03:54:04;3.75;;;3.40;;
15474;SDS011;7839;50.462;9.678;2023-05-07T04:00:45;0.77;;;0.75;;
15474;SDS011;7839;50.462;9.678;2023-05-07T04:07:25;0.50;;;0.50;;
15474;SDS011;7839;50.462;9.678;2023-05-07T04:14:05;0.50;;;0.50;;
15474;SDS011;7839;50.462;9.678;2023-05-07T04:20:46;4.40;;;4.10;;
15474;SDS011;7839;50.462;9.678;2023-05-07T04:27:26;1.00;;;1.00;;
15474;SDS011;7839;50.462;9.678;2023-05-07T04:34:06;5.45;;;4.95;;
15474;SDS011;7839;50.462;9.678;2023-05-07T04:40:47;6.50;;;5.90;;
15474;SDS011;7839;50.462;9.678;2023-05-07T04:47:27;7.87;;;7.10;;
15474;SDS011;7839;50.462;9.678;2023-05-07T04:54:07;7.70;;;6.90;;
15474;SDS011;7839;50.462;9.678;2023-05-07T05:00:47;7.27;;;6.53;;
15474;SDS011;7839;50.462;9.678;2023-05-07T05:07:30;10.57;;;8.07;;
15474;SDS011;7839;50.462;9.678;2023-05-07T05:14:10;9.60;;;8.60;;
15474;SDS011;7839;50.462;9.678;2023-05-07T05:20:51;10.23;;;9.17;;
15474;SDS011;7839;50.462;9.678;2023-05-07T05:27:31;12.53;;;9.30;;
15474;SDS011;7839;50.462;9.678;2023-05-07T05:34:11;12.10;;;10.50;;
15474;SDS011;7839;50.462;9.678;2023-05-07T05:40:51;11.00;;;9.63;;
15474;SDS011;7839;50.462;9.678;2023-05-07T05:47:32;15.20;;;11.60;;
15474;SDS011;7839;50.462;9.678;2023-05-07T05:54:12;13.40;;;12.00;;
15474;SDS011;7839;50.462;9.678;2023-05-07T06:00:52;14.63;;;12.90;;
15474;SDS011;7839;50.462;9.678;2023-05-07T06:07:33;14.37;;;12.87;;
15474;SDS011;7839;50.462;9.678;2023-05-07T06:14:14;14.33;;;12.93;;
15474;SDS011;7839;50.462;9.678;2023-05-07T06:20:54;14.07;;;12.63;;
15474;SDS011;7839;50.462;9.678;2023-05-07T06:27:35;14.27;;;12.80;;
15474;SDS011;7839;50.462;9.678;2023-05-07T06:34:15;17.87;;;14.00;;
15474;SDS011;7839;50.462;9.678;2023-05-07T06:40:55;16.10;;;14.40;;
15474;SDS011;7839;50.462;9.678;2023-05-07T06:47:37;15.33;;;13.60;;
15474;SDS011;7839;50.462;9.678;2023-05-07T06:54:17;17.27;;;14.23;;
15474;SDS011;7839;50.462;9.678;2023-05-07T07:00:57;15.23;;;13.60;;
15474;SDS011;7839;50.462;9.678;2023-05-07T07:07:40;14.20;;;12.70;;
15474;SDS011;7839;50.462;9.678;2023-05-07T07:14:21;15.50;;;13.50;;
15474;SDS011;7839;50.462;9.678;2023-05-07T07:21:01;15.80;;;13.27;;
15474;SDS011;7839;50.462;9.678;2023-05-07T07:27:41;14.63;;;13.13;;
15474;SDS011;7839;50.462;9.678;2023-05-07T07:34:21;15.47;;;13.17;;
15474;SDS011;7839;50.462;9.678;2023-05-07T07:41:01;13.97;;;12.53;;
15474;SDS011;7839;50.462;9.678;2023-05-07T07:47:42;14.13;;;12.73;;
15474;SDS011;7839;50.462;9.678;2023-05-07T07:54:22;13.80;;;12.40;;
15474;SDS011;7839;50.462;9.678;2023-05-07T08:01:02;13.57;;;12.17;;
15474;SDS011;7839;50.462;9.678;2023-05-07T08:07:43;13.23;;;11.83;;
15474;SDS011;7839;50.462;9.678;2023-05-07T08:14:23;15.07;;;11.35;;
15474;SDS011;7839;50.462;9.678;2023-05-07T08:21:03;12.33;;;11.10;;
15474;SDS011;7839;50.462;9.678;2023-05-07T08:27:44;13.90;;;11.00;;
15474;SDS011;7839;50.462;9.678;2023-05-07T08:34:24;12.63;;;11.33;;
15474;SDS011;7839;50.462;9.678;2023-05-07T08:41:05;9.70;;;8.70;;
15474;SDS011;7839;50.462;9.678;2023-05-07T08:47:48;12.80;;;10.30;;
15474;SDS011;7839;50.462;9.678;2023-05-07T08:54:31;10.33;;;9.33;;
15474;SDS011;7839;50.462;9.678;2023-05-07T09:01:12;10.33;;;8.97;;
15474;SDS011;7839;50.462;9.678;2023-05-07T09:07:53;7.97;;;7.13;;
15474;SDS011;7839;50.462;9.678;2023-05-07T09:14:35;9.13;;;8.23;;
15474;SDS011;7839;50.462;9.678;2023-05-07T09:21:15;8.67;;;7.77;;
15474;SDS011;7839;50.462;9.678;2023-05-07T09:27:55;7.10;;;6.23;;
15474;SDS011;7839;50.462;9.678;2023-05-07T09:34:36;6.03;;;5.47;;
15474;SDS011;7839;50.462;9.678;2023-05-07T09:41:16;6.03;;;5.50;;
15474;SDS011;7839;50.462;9.678;2023-05-07T09:47:57;6.30;;;5.80;;
15474;SDS011;7839;50.462;9.678;2023-05-07T09:54:37;6.80;;;6.20;;
15474;SDS011;7839;50.462;9.678;2023-05-07T10:01:18;6.73;;;6.00;;
15474;SDS011;7839;50.462;9.678;2023-05-07T10:08:02;5.93;;;5.43;;
15474;SDS011;7839;50.462;9.678;2023-05-07T10:14:42;5.60;;;5.10;;
15474;SDS011;7839;50.462;9.678;2023-05-07T10:21:23;5.07;;;4.57;;
15474;SDS011;7839;50.462;9.678;2023-05-07T10:28:05;4.57;;;4.13;;
15474;SDS011;7839;50.462;9.678;2023-05-07T10:34:47;4.53;;;4.13;;
15474;SDS011;7839;50.462;9.678;2023-05-07T10:41:28;6.73;;;6.10;;
15474;SDS011;7839;50.462;9.678;2023-05-07T10:54:49;8.80;;;6.80;;
15474;SDS011;7839;50.462;9.678;2023-05-07T11:08:55;5.10;;;4.60;;
15474;SDS011;7839;50.462;9.678;2023-05-07T11:15:40;6.20;;;5.60;;
15474;SDS011;7839;50.462;9.678;2023-05-07T11:29:12;6.13;;;5.63;;
15474;SDS011;7839;50.462;9.678;2023-05-07T11:35:55;8.53;;;5.70;;
15474;SDS011;7839;50.462;9.678;2023-05-07T11:42:36;7.67;;;5.50;;
15474;SDS011;7839;50.462;9.678;2023-05-07T11:49:19;5.50;;;5.00;;
15474;SDS011;7839;50.462;9.678;2023-05-07T11:56:00;4.47;;;3.90;;
15474;SDS011;7839;50.462;9.678;2023-05-07T12:02:40;4.70;;;4.30;;
15474;SDS011;7839;50.462;9.678;2023-05-07T12:09:21;4.57;;;4.17;;
15474;SDS011;7839;50.462;9.678;2023-05-07T12:16:02;3.43;;;2.60;;
15474;SDS011;7839;50.462;9.678;2023-05-07T12:22:43;2.10;;;1.90;;
15474;SDS011;7839;50.462;9.678;2023-05-07T12:29:23;1.90;;;1.80;;
15474;SDS011;7839;50.462;9.678;2023-05-07T12:36:05;1.67;;;1.40;;
15474;SDS011;7839;50.462;9.678;2023-05-07T12:42:48;1.90;;;1.67;;
15474;SDS011;7839;50.462;9.678;2023-05-07T12:49:34;3.57;;;2.17;;
15474;SDS011;7839;50.462;9.678;2023-05-07T12:56:15;1.50;;;1.40;;
15474;SDS011;7839;50.462;9.678;2023-05-07T13:02:55;1.57;;;1.40;;
15474;SDS011;7839;50.462;9.678;2023-05-07T13:09:36;3.07;;;1.70;;
15474;SDS011;7839;50.462;9.678;2023-05-07T13:16:17;2.40;;;2.20;;
15474;SDS011;7839;50.462;9.678;2023-05-07T13:22:57;1.73;;;1.60;;
15474;SDS011;7839;50.462;9.678;2023-05-07T13:29:37;2.07;;;1.50;;
15474;SDS011;7839;50.462;9.678;2023-05-07T13:36:17;2.20;;;2.10;;
15474;SDS011;7839;50.462;9.678;2023-05-07T13:42:59;2.40;;;2.28;;
15474;SDS011;7839;50.462;9.678;2023-05-07T13:49:41;1.87;;;1.77;;
15474;SDS011;7839;50.462;9.678;2023-05-07T13:56:22;5.10;;;1.90;;
15474;SDS011;7839;50.462;9.678;2023-05-07T14:03:03;2.08;;;1.98;;
15474;SDS011;7839;50.462;9.678;2023-05-07T14:09:44;3.30;;;3.00;;
15474;SDS011;7839;50.462;9.678;2023-05-07T14:16:25;3.67;;;3.37;;
15474;SDS011;7839;50.462;9.678;2023-05-07T14:23:05;4.00;;;3.20;;
15474;SDS011;7839;50.462;9.678;2023-05-07T14:29:46;3.33;;;3.13;;
15474;SDS011;7839;50.462;9.678;2023-05-07T14:36:30;4.17;;;3.40;;
15474;SDS011;7839;50.462;9.678;2023-05-07T14:43:11;3.47;;;3.17;;
15474;SDS011;7839;50.462;9.678;2023-05-07T14:49:51;3.57;;;3.10;;
15474;SDS011;7839;50.462;9.678;2023-05-07T14:56:33;4.20;;;3.90;;
15474;SDS011;7839;50.462;9.678;2023-05-07T15:03:13;3.80;;;3.50;;
15474;SDS011;7839;50.462;9.678;2023-05-07T15:09:53;4.50;;;4.10;;
15474;SDS011;7839;50.462;9.678;2023-05-07T15:16:34;4.53;;;4.05;;
15474;SDS011;7839;50.462;9.678;2023-05-07T15:23:14;4.60;;;3.73;;
15474;SDS011;7839;50.462;9.678;2023-05-07T15:29:55;4.53;;;4.13;;
15474;SDS011;7839;50.462;9.678;2023-05-07T15:36:36;4.70;;;4.30;;
15474;SDS011;7839;50.462;9.678;2023-05-07T15:43:16;5.67;;;4.20;;
15474;SDS011;7839;50.462;9.678;2023-05-07T15:49:56;4.17;;;3.77;;
15474;SDS011;7839;50.462;9.678;2023-05-07T15:56:36;4.73;;;4.20;;
15474;SDS011;7839;50.462;9.678;2023-05-07T16:03:16;4.77;;;4.13;;
15474;SDS011;7839;50.462;9.678;2023-05-07T16:09:57;5.87;;;4.47;;
15474;SDS011;7839;50.462;9.678;2023-05-07T16:16:38;5.00;;;4.50;;
15474;SDS011;7839;50.462;9.678;2023-05-07T16:23:19;4.80;;;4.40;;
15474;SDS011;7839;50.462;9.678;2023-05-07T16:30:00;4.40;;;4.00;;
15474;SDS011;7839;50.462;9.678;2023-05-07T16:36:40;5.10;;;4.60;;
15474;SDS011;7839;50.462;9.678;2023-05-07T16:43:20;5.00;;;4.50;;
15474;SDS011;7839;50.462;9.678;2023-05-07T16:50:00;7.00;;;4.97;;
15474;SDS011;7839;50.462;9.678;2023-05-07T16:56:44;5.33;;;4.93;;
15474;SDS011;7839;50.462;9.678;2023-05-07T17:03:24;5.37;;;4.87;;
15474;SDS011;7839;50.462;9.678;2023-05-07T17:10:05;6.07;;;5.47;;
15474;SDS011;7839;50.462;9.678;2023-05-07T17:16:45;5.03;;;4.60;;
15474;SDS011;7839;50.462;9.678;2023-05-07T17:23:26;8.33;;;5.33;;
15474;SDS011;7839;50.462;9.678;2023-05-07T17:30:06;5.43;;;4.93;;
15474;SDS011;7839;50.462;9.678;2023-05-07T17:36:46;8.30;;;6.10;;
15474;SDS011;7839;50.462;9.678;2023-05-07T17:43:26;10.83;;;5.47;;
15474;SDS011;7839;50.462;9.678;2023-05-07T17:50:07;6.57;;;5.33;;
15474;SDS011;7839;50.462;9.678;2023-05-07T17:56:49;5.97;;;5.37;;
15474;SDS011;7839;50.462;9.678;2023-05-07T18:03:30;5.97;;;5.40;;
15474;SDS011;7839;50.462;9.678;2023-05-07T18:10:10;6.07;;;5.47;;
15474;SDS011;7839;50.462;9.678;2023-05-07T18:16:51;5.77;;;5.27;;
15474;SDS011;7839;50.462;9.678;2023-05-07T18:23:31;5.83;;;5.30;;
15474;SDS011;7839;50.462;9.678;2023-05-07T18:30:14;6.77;;;4.97;;
15474;SDS011;7839;50.462;9.678;2023-05-07T18:36:54;5.97;;;5.10;;
15474;SDS011;7839;50.462;9.678;2023-05-07T18:43:35;5.20;;;4.70;;
15474;SDS011;7839;50.462;9.678;2023-05-07T18:50:15;5.27;;;4.57;;
15474;SDS011;7839;50.462;9.678;2023-05-07T18:56:55;4.90;;;4.50;;
15474;SDS011;7839;50.462;9.678;2023-05-07T19:03:36;6.17;;;5.67;;
15474;SDS011;7839;50.462;9.678;2023-05-07T19:10:17;5.20;;;4.70;;
15474;SDS011;7839;50.462;9.678;2023-05-07T19:16:57;4.43;;;4.03;;
15474;SDS011;7839;50.462;9.678;2023-05-07T19:23:38;4.73;;;4.30;;
15474;SDS011;7839;50.462;9.678;2023-05-07T19:30:20;5.77;;;4.37;;
15474;SDS011;7839;50.462;9.678;2023-05-07T19:37:01;5.03;;;4.53;;
15474;SDS011;7839;50.462;9.678;2023-05-07T19:43:41;4.50;;;4.20;;
15474;SDS011;7839;50.462;9.678;2023-05-07T19:50:21;5.00;;;4.60;;
15474;SDS011;7839;50.462;9.678;2023-05-07T19:57:02;4.80;;;4.40;;
15474;SDS011;7839;50.462;9.678;2023-05-07T20:03:42;5.70;;;5.20;;
15474;SDS011;7839;50.462;9.678;2023-05-07T20:10:23;7.63;;;5.40;;
15474;SDS011;7839;50.462;9.678;2023-05-07T20:17:03;5.83;;;5.23;;
15474;SDS011;7839;50.462;9.678;2023-05-07T20:23:43;5.07;;;4.67;;
15474;SDS011;7839;50.462;9.678;2023-05-07T20:30:23;7.37;;;5.40;;
15474;SDS011;7839;50.462;9.678;2023-05-07T20:37:04;5.83;;;5.30;;
15474;SDS011;7839;50.462;9.678;2023-05-07T20:43:44;6.50;;;5.70;;
15474;SDS011;7839;50.462;9.678;2023-05-07T20:50:25;5.37;;;4.97;;
15474;SDS011;7839;50.462;9.678;2023-05-07T20:57:06;5.50;;;5.00;;
15474;SDS011;7839;50.462;9.678;2023-05-07T21:03:46;5.93;;;5.40;;
15474;SDS011;7839;50.462;9.678;2023-05-07T21:10:26;4.23;;;3.93;;
15474;SDS011;7839;50.462;9.678;2023-05-07T21:17:06;3.77;;;3.47;;
15474;SDS011;7839;50.462;9.678;2023-05-07T21:23:47;4.43;;;4.10;;
15474;SDS011;7839;50.462;9.678;2023-05-07T21:30:27;5.00;;;4.60;;
15474;SDS011;7839;50.462;9.678;2023-05-07T21:37:08;4.43;;;4.03;;
15474;SDS011;7839;50.462;9.678;2023-05-07T21:43:48;5.10;;;4.67;;
15474;SDS011;7839;50.462;9.678;2023-05-07T21:50:28;4.53;;;4.13;;
15474;SDS011;7839;50.462;9.678;2023-05-07T21:57:08;4.40;;;4.10;;
15474;SDS011;7839;50.462;9.678;2023-05-07T22:03:49;5.13;;;4.72;;
15474;SDS011;7839;50.462;9.678;2023-05-07T22:10:29;5.47;;;5.07;;
15474;SDS011;7839;50.462;9.678;2023-05-07T22:17:09;5.43;;;5.03;;
15474;SDS011;7839;50.462;9.678;2023-05-07T22:23:50;5.53;;;5.03;;
15474;SDS011;7839;50.462;9.678;2023-05-07T22:30:30;5.43;;;4.97;;
15474;SDS011;7839;50.462;9.678;2023-05-07T22:37:10;5.63;;;5.20;;
15474;SDS011;7839;50.462;9.678;2023-05-07T22:43:50;5.73;;;5.23;;
15474;SDS011;7839;50.462;9.678;2023-05-07T22:50:34;5.77;;;5.23;;
15474;SDS011;7839;50.462;9.678;2023-05-07T22:57:15;5.33;;;4.93;;
15474;SDS011;7839;50.462;9.678;2023-05-07T23:03:55;6.10;;;5.60;;
15474;SDS011;7839;50.462;9.678;2023-05-07T23:10:35;3.90;;;3.60;;
15474;SDS011;7839;50.462;9.678;2023-05-07T23:17:16;5.53;;;5.13;;
15474;SDS011;7839;50.462;9.678;2023-05-07T23:23:56;6.20;;;5.60;;
15474;SDS011;7839;50.462;9.678;2023-05-07T23:30:36;7.70;;;4.97;;
15474;SDS011;7839;50.462;9.678;2023-05-07T23:37:18;5.70;;;5.20;;
15474;SDS011;7839;50.462;9.678;2023-05-07T23:43:58;5.23;;;4.73;;
15474;SDS011;7839;50.462;9.678;2023-05-07T23:50:39;5.83;;;5.33;;
15474;SDS011;7839;50.462;9.678;2023-05-07T23:57:19;8.03;;;5.57;;
